Aérodrome :
LOGIN :

S'inscrire | Disclaimer

   EN    FR    IT 

 










Légende :    VFR   VFR Marginal   IFR   IFR Intensif   IFR Très Intensif
Visi : 
Plafond : 
>= 8 km
>= 3000ft
5 à 8 km
1000 à 3000 ft
1500m à 5 km
500 à 1000 ft
800 à 1500m
200 à 500 ft
< 800m
< 200 ft
Symboles :   Orages  Brouillard  Fortes neiges  Fortes précipitations  Vent > 20 kt
SIGMETs :   Divers  Orages  Givrage  Turbulence  Onde Orograph.  Cendres Volcan.







- Altitude de l'aérodrome : 464 ft
- Code IATA : EVX
- Voir les cartes d'approche


LFOE - Evreux

DERNIER METAR :
  • 230500Z AUTO 21024G34KT 9999 BKN030 BKN041 BKN060 14/09 Q0998

METARs EXPIRÉS :
  • 230430Z AUTO 20024KT 9999 SCT034 BKN064 BKN076 14/08 Q0997
  • 230400Z AUTO 20019KT 9999 BKN036 BKN056 BKN076 13/07 Q0997
  • 230330Z AUTO 19022KT 9999 FEW038 BKN230 13/07 Q0997
  • 230300Z AUTO 19021KT 9999 FEW041 13/07 Q0997
  • 230230Z AUTO 19017KT CAVOK 12/06 Q0998

TAF TAF LFOE
Valide du 23 à 03h jusqu'au 24 à 03h UTC


230200Z 2303/2403 19015G30KT CAVOK
TEMPO 2303/2308 19020G40KT
TEMPO 2308/2311 BKN014
BECMG 2312/2315 24008KT
TEMPO 2313/2318 4000 -SHRA
BECMG 2322/2401 BKN014
Pas de NOTAMs connus pour ce terrain.
1 SIGMET publié pour la FIR Paris (LFFF) :
 
Turbulence forte
LFFF SIGMET 1 VALID 230300/230700 LFPW
LFFF PARIS FIR/UIR SEV TURB FCST NW OF LINE N5100 E00245 - N4800 W00015 SFC/FL060 MOV NE 30KT NC=



MET'MAP, la Météo Aéronautique d'un coup d'oeil ! - Copyright ORBIFLY Décembre 2007 - Disclaimer

ORBIFLY MET'MAP TEAM :

Programmation & Développement : Alexandra Zaïnal
Conception & Développement : Baudouin d'Aumeries
Co-Programmation & Développement : Marc-Olivier Méhu
Soutien technique & logistique : Manuel Goepfert

Contact : metmap@orbifly.com




SOURCES & CREDITS :

   NOAA